Time;durP1;ratioP1;P1;durP2;ratioP2;P2;SDS_P1;SDS_P2;PMS_P1;PMS_P2;Temp;Humidity;BMP_temperature;BMP_pressure;BME280_temperature;BME280_humidity;BME280_pressure;Samples;Min_cycle;Max_cycle;Signal;HPM_P1;HPM_P2
2023/08/15 00:01:18;;;;;;;0.57;0.32;;;24.40;68.10;;;;;;6368504;27;20035;-58
2023/08/15 00:04:20;;;;;;;0.80;0.30;;;24.40;67.90;;;;;;6371568;27;20035;-58
2023/08/15 00:07:21;;;;;;;1.02;0.60;;;24.40;67.90;;;;;;6367171;27;20038;-58
2023/08/15 00:10:23;;;;;;;0.60;0.50;;;24.40;68.00;;;;;;6367106;27;20676;-58
2023/08/15 00:13:25;;;;;;;0.63;0.30;;;24.30;68.10;;;;;;6365806;27;20042;-58
2023/08/15 00:16:26;;;;;;;0.40;0.28;;;24.20;67.90;;;;;;6369584;27;20042;-57
2023/08/15 00:19:29;;;;;;;0.88;0.40;;;24.40;68.40;;;;;;6367896;27;20713;-57
2023/08/15 00:22:30;;;;;;;0.63;0.40;;;24.80;68.20;;;;;;6368020;27;20042;-57
2023/08/15 00:25:31;;;;;;;0.30;0.22;;;24.00;67.90;;;;;;6367107;27;20078;-57
2023/08/15 00:28:35;;;;;;;1.50;0.30;;;24.30;68.50;;;;;;6368982;27;20035;-58
2023/08/15 00:31:40;;;;;;;0.68;0.50;;;24.40;67.90;;;;;;6366590;27;20042;-58
2023/08/15 00:34:42;;;;;;;0.57;0.40;;;23.70;67.70;;;;;;6369128;27;20057;-58
2023/08/15 00:37:44;;;;;;;0.40;0.30;;;24.30;68.00;;;;;;6369139;27;20043;-58
2023/08/15 00:40:45;;;;;;;0.68;0.50;;;24.40;68.30;;;;;;6366048;27;20366;-58
2023/08/15 00:43:47;;;;;;;0.65;0.38;;;24.30;68.10;;;;;;6372594;27;20047;-55
2023/08/15 00:46:49;;;;;;;0.50;0.35;;;24.40;68.30;;;;;;6369865;27;20561;-55
2023/08/15 00:49:53;;;;;;;1.08;0.30;;;24.50;68.50;;;;;;6370744;27;20273;-57
2023/08/15 00:52:55;;;;;;;0.60;0.43;;;24.30;68.10;;;;;;6364445;27;20035;-57
2023/08/15 00:55:58;;;;;;;0.80;0.50;;;24.30;68.10;;;;;;6367480;27;20087;-57
2023/08/15 00:59:06;;;;;;;0.70;0.22;;;24.20;68.00;;;;;;6347758;27;20034;-57
2023/08/15 01:02:09;;;;;;;0.77;0.40;;;24.30;68.10;;;;;;6368560;27;20359;-57
2023/08/15 01:05:14;;;;;;;0.43;0.30;;;24.30;68.10;;;;;;6369958;27;20059;-57
2023/08/15 01:08:18;;;;;;;0.32;0.28;;;24.30;68.50;;;;;;6373158;27;20046;-57
2023/08/15 01:11:20;;;;;;;0.35;0.30;;;24.30;68.00;;;;;;6370958;27;20034;-57
2023/08/15 01:14:28;;;;;;;0.20;0.20;;;24.30;68.10;;;;;;6372712;27;20034;-57
2023/08/15 01:17:35;;;;;;;0.65;0.30;;;24.00;67.80;;;;;;6372234;27;20039;-56
2023/08/15 01:20:40;;;;;;;0.20;0.20;;;24.30;67.80;;;;;;6373213;27;20398;-56
2023/08/15 01:23:43;;;;;;;0.55;0.30;;;24.20;67.80;;;;;;6371896;27;20500;-57
2023/08/15 01:26:44;;;;;;;0.28;0.20;;;24.20;67.60;;;;;;6370805;27;20035;-57
2023/08/15 01:29:46;;;;;;;0.38;0.28;;;24.30;68.00;;;;;;6372350;27;20099;-57
2023/08/15 01:32:57;;;;;;;0.20;0.20;;;24.20;68.30;;;;;;6372824;27;20034;-57
2023/08/15 01:36:04;;;;;;;0.35;0.30;;;24.20;68.10;;;;;;6372391;27;20038;-56
2023/08/15 01:39:07;;;;;;;0.28;0.20;;;24.10;67.50;;;;;;6369481;27;20472;-57
2023/08/15 01:42:10;;;;;;;0.40;0.40;;;23.90;67.80;;;;;;6354177;27;20412;-56
2023/08/15 01:45:16;;;;;;;0.20;0.20;;;24.30;67.50;;;;;;6373012;27;20047;-56
2023/08/15 01:48:18;;;;;;;0.10;0.10;;;24.30;67.40;;;;;;6370978;27;20426;-57
2023/08/15 01:51:19;;;;;;;0.45;0.15;;;24.20;67.90;;;;;;6370451;27;20047;-56
2023/08/15 01:54:21;;;;;;;0.20;0.20;;;23.70;67.10;;;;;;6372778;27;20039;-55
2023/08/15 01:57:24;;;;;;;0.30;0.20;;;24.20;66.60;;;;;;6372376;27;20034;-56
2023/08/15 02:00:25;;;;;;;0.20;0.20;;;24.30;67.70;;;;;;6370024;27;20030;-56
2023/08/15 02:03:27;;;;;;;1.17;0.38;;;23.70;66.60;;;;;;6371299;27;20053;-56
2023/08/15 02:06:29;;;;;;;0.32;0.30;;;23.70;67.20;;;;;;6372180;27;20119;-56
2023/08/15 02:09:31;;;;;;;0.10;0.10;;;24.30;65.50;;;;;;6352579;27;20277;-56
2023/08/15 02:12:32;;;;;;;0.20;0.20;;;24.20;66.80;;;;;;6369018;27;20042;-55
2023/08/15 02:15:34;;;;;;;0.28;0.20;;;23.60;66.30;;;;;;6370123;27;20433;-56
2023/08/15 02:18:36;;;;;;;0.43;0.10;;;22.70;65.80;;;;;;6370845;27;20038;-56
2023/08/15 02:21:41;;;;;;;0.20;0.20;;;24.10;66.40;;;;;;6368539;27;20046;-55
2023/08/15 02:24:43;;;;;;;0.35;0.30;;;24.00;66.20;;;;;;6369643;27;20341;-56
2023/08/15 02:27:45;;;;;;;0.25;0.20;;;24.30;66.20;;;;;;6370077;27;20038;-56
2023/08/15 02:30:46;;;;;;;0.20;0.20;;;24.10;66.10;;;;;;6369528;27;20087;-56
2023/08/15 02:33:48;;;;;;;0.17;0.17;;;24.20;66.50;;;;;;6369395;27;20039;-56
2023/08/15 02:36:49;;;;;;;0.30;0.20;;;23.80;65.70;;;;;;6368085;27;20050;-55
2023/08/15 02:39:51;;;;;;;0.60;0.38;;;24.00;65.60;;;;;;6369537;27;20051;-56
2023/08/15 02:42:53;;;;;;;0.65;0.30;;;24.20;66.10;;;;;;6370999;27;20372;-56
2023/08/15 02:45:55;;;;;;;0.10;0.10;;;24.00;65.50;;;;;;6368217;27;20030;-55
2023/08/15 02:48:56;;;;;;;0.10;0.10;;;24.00;65.40;;;;;;6370940;27;20310;-56
2023/08/15 02:51:58;;;;;;;0.20;0.13;;;24.10;65.40;;;;;;6369087;27;20216;-56
2023/08/15 02:55:00;;;;;;;0.10;0.10;;;23.60;65.00;;;;;;6370546;27;20575;-56
2023/08/15 02:58:02;;;;;;;0.20;0.20;;;23.80;64.90;;;;;;6368885;27;20042;-56
2023/08/15 03:01:05;;;;;;;0.40;0.20;;;24.10;65.50;;;;;;6371951;27;20035;-56
2023/08/15 03:04:08;;;;;;;0.10;0.10;;;23.70;64.20;;;;;;6369857;27;20054;-56
2023/08/15 03:07:10;;;;;;;0.10;0.10;;;24.10;64.90;;;;;;6370361;27;20034;-56
2023/08/15 03:10:12;;;;;;;0.43;0.10;;;24.10;65.00;;;;;;6368234;27;20031;-56
2023/08/15 03:13:16;;;;;;;0.20;0.20;;;24.10;64.90;;;;;;6370018;27;20050;-56
2023/08/15 03:16:17;;;;;;;0.40;0.20;;;23.60;64.50;;;;;;6370690;27;20050;-56
2023/08/15 03:19:20;;;;;;;0.20;0.20;;;24.00;64.70;;;;;;6368124;27;20039;-56
2023/08/15 03:22:23;;;;;;;0.17;0.10;;;24.20;65.10;;;;;;6367618;27;20030;-56
2023/08/15 03:25:27;;;;;;;0.20;0.20;;;24.00;64.60;;;;;;6368975;27;20035;-56
2023/08/15 03:28:32;;;;;;;0.22;0.20;;;24.10;64.50;;;;;;6371965;27;20989;-56
2023/08/15 03:31:37;;;;;;;0.10;0.10;;;23.90;64.30;;;;;;6316565;27;20070;-55
2023/08/15 03:34:39;;;;;;;0.30;0.20;;;23.90;64.50;;;;;;6372419;27;20532;-57
2023/08/15 03:37:43;;;;;;;0.20;0.20;;;23.60;64.40;;;;;;6372386;27;20575;-55
2023/08/15 03:40:49;;;;;;;0.17;0.13;;;23.60;64.80;;;;;;6371276;27;20113;-56
2023/08/15 03:43:51;;;;;;;0.13;0.13;;;23.90;64.40;;;;;;6368441;27;20039;-57
2023/08/15 03:46:52;;;;;;;0.10;0.10;;;23.90;64.60;;;;;;6367607;27;20090;-57
2023/08/15 03:49:54;;;;;;;0.13;0.10;;;24.00;64.70;;;;;;6368427;27;20502;-56
2023/08/15 03:52:55;;;;;;;0.28;0.20;;;23.50;64.30;;;;;;6366499;27;20065;-57
2023/08/15 03:56:00;;;;;;;0.10;0.10;;;23.90;64.70;;;;;;6367394;27;20066;-55
2023/08/15 03:59:02;;;;;;;0.20;0.20;;;23.60;64.40;;;;;;6363879;27;20394;-55
2023/08/15 04:02:07;;;;;;;0.10;0.10;;;24.00;64.80;;;;;;6365713;27;20091;-55
2023/08/15 04:05:11;;;;;;;0.10;0.10;;;24.00;64.70;;;;;;6367200;27;20039;-56
2023/08/15 04:08:13;;;;;;;0.30;0.20;;;23.90;64.70;;;;;;6368841;27;20043;-56
2023/08/15 04:11:15;;;;;;;0.20;0.20;;;23.90;64.70;;;;;;6368930;27;20037;-56
2023/08/15 04:14:19;;;;;;;0.20;0.20;;;23.90;64.80;;;;;;6371578;27;20040;-56
2023/08/15 04:17:22;;;;;;;0.10;0.10;;;23.90;65.00;;;;;;6367304;27;20022;-56
2023/08/15 04:20:24;;;;;;;0.38;0.20;;;23.80;64.80;;;;;;6370680;27;20031;-56
2023/08/15 04:23:26;;;;;;;0.20;0.20;;;23.80;65.20;;;;;;6369732;27;20079;-55
2023/08/15 04:26:28;;;;;;;0.30;0.20;;;23.90;65.40;;;;;;6367791;27;20042;-56
2023/08/15 04:29:30;;;;;;;0.20;0.20;;;23.90;64.90;;;;;;6367243;27;20058;-56
2023/08/15 04:32:31;;;;;;;0.20;0.20;;;23.60;64.80;;;;;;6369389;27;20039;-56
2023/08/15 04:35:33;;;;;;;0.20;0.20;;;23.40;64.70;;;;;;6369475;27;20058;-56
2023/08/15 04:38:35;;;;;;;0.52;0.30;;;23.80;65.00;;;;;;6369153;27;20435;-56
2023/08/15 04:41:37;;;;;;;0.55;0.30;;;23.60;64.80;;;;;;6372352;27;20118;-55
2023/08/15 04:44:39;;;;;;;0.20;0.20;;;23.90;64.90;;;;;;6373853;27;20038;-56
2023/08/15 04:47:40;;;;;;;0.40;0.20;;;23.80;64.80;;;;;;6373291;27;20035;-55
2023/08/15 04:50:42;;;;;;;0.10;0.10;;;23.90;65.10;;;;;;6371734;27;20043;-56
2023/08/15 04:53:43;;;;;;;0.20;0.20;;;24.00;65.60;;;;;;6372412;27;20888;-56
2023/08/15 04:56:49;;;;;;;0.20;0.20;;;23.40;64.80;;;;;;6371198;27;20038;-56
2023/08/15 04:59:50;;;;;;;0.10;0.10;;;24.00;65.00;;;;;;6372589;27;20034;-56
2023/08/15 05:02:52;;;;;;;0.20;0.20;;;23.70;65.00;;;;;;6360792;27;20073;-56
2023/08/15 05:05:53;;;;;;;0.75;0.28;;;23.70;65.00;;;;;;6353915;27;20034;-56
2023/08/15 05:08:55;;;;;;;0.20;0.20;;;23.40;65.30;;;;;;6360266;27;20054;-56
2023/08/15 05:11:58;;;;;;;0.20;0.20;;;23.80;64.90;;;;;;6358387;27;20425;-56
2023/08/15 05:14:59;;;;;;;0.10;0.10;;;23.80;65.20;;;;;;6355952;27;20031;-55
2023/08/15 05:18:01;;;;;;;0.10;0.10;;;23.90;65.20;;;;;;6360680;27;20099;-56
2023/08/15 05:21:04;;;;;;;0.10;0.10;;;23.40;65.00;;;;;;6360754;27;20509;-56
2023/08/15 05:24:07;;;;;;;0.30;0.10;;;23.70;65.10;;;;;;6354297;27;20027;-53
2023/08/15 05:27:12;;;;;;;0.40;0.20;;;23.70;65.10;;;;;;6359207;27;20083;-55
2023/08/15 05:30:16;;;;;;;0.10;0.10;;;23.50;64.90;;;;;;6343090;27;20132;-55
2023/08/15 05:33:18;;;;;;;0.22;0.20;;;23.70;65.10;;;;;;6363277;27;20037;-47
2023/08/15 05:36:20;;;;;;;0.22;0.20;;;23.60;65.90;;;;;;6384231;27;20099;-49
2023/08/15 05:39:23;;;;;;;0.40;0.20;;;23.30;65.10;;;;;;6387441;27;20027;-47
2023/08/15 05:42:27;;;;;;;0.20;0.20;;;23.40;65.40;;;;;;6388306;27;20035;-47
2023/08/15 05:45:29;;;;;;;0.13;0.10;;;23.30;65.30;;;;;;6388781;27;20035;-48
2023/08/15 05:48:31;;;;;;;0.20;0.20;;;23.20;65.50;;;;;;6384317;27;20044;-49
2023/08/15 05:51:33;;;;;;;0.10;0.10;;;23.40;65.20;;;;;;6370507;27;20041;-47
2023/08/15 05:54:35;;;;;;;0.38;0.35;;;23.30;65.30;;;;;;6386754;27;20051;-45
2023/08/15 05:57:37;;;;;;;0.10;0.10;;;23.00;65.40;;;;;;6387017;27;20034;-45
2023/08/15 06:00:40;;;;;;;0.50;0.20;;;22.50;64.70;;;;;;6387789;27;20113;-49
2023/08/15 06:03:42;;;;;;;0.43;0.20;;;23.60;65.40;;;;;;6386879;27;20039;-48
2023/08/15 06:06:54;;;;;;;0.30;0.20;;;23.50;65.70;;;;;;6389196;27;20041;-47
2023/08/15 06:09:56;;;;;;;0.73;0.20;;;23.50;65.40;;;;;;6395053;27;20043;-48
2023/08/15 06:12:58;;;;;;;0.20;0.20;;;23.30;65.50;;;;;;6394451;27;20091;-48
2023/08/15 06:15:59;;;;;;;0.30;0.20;;;23.60;65.60;;;;;;6394912;27;20078;-47
2023/08/15 06:19:01;;;;;;;0.40;0.20;;;23.60;65.60;;;;;;6395326;27;20372;-46
2023/08/15 06:22:03;;;;;;;0.10;0.10;;;23.60;65.90;;;;;;6394887;27;20046;-49
2023/08/15 06:25:08;;;;;;;0.20;0.20;;;23.60;64.70;;;;;;6395152;27;20083;-49
2023/08/15 06:28:12;;;;;;;0.52;0.20;;;23.40;65.20;;;;;;6393327;27;20068;-50
2023/08/15 06:31:16;;;;;;;0.10;0.10;;;23.50;65.60;;;;;;6394548;27;20062;-49
2023/08/15 06:34:18;;;;;;;0.25;0.20;;;21.50;65.20;;;;;;6390887;27;20095;-50
2023/08/15 06:37:20;;;;;;;0.10;0.10;;;23.10;66.00;;;;;;6395959;27;20275;-48
2023/08/15 06:40:22;;;;;;;0.20;0.20;;;23.60;66.30;;;;;;6395560;27;20057;-44
2023/08/15 06:43:24;;;;;;;0.60;0.30;;;23.40;65.20;;;;;;6395901;27;20040;-48
2023/08/15 06:46:26;;;;;;;0.20;0.20;;;22.40;65.20;;;;;;6375435;27;20057;-47
2023/08/15 06:49:28;;;;;;;0.30;0.20;;;20.90;65.30;;;;;;6394738;27;20041;-49
2023/08/15 06:52:29;;;;;;;0.25;0.20;;;22.70;65.60;;;;;;6393048;27;20042;-47
2023/08/15 06:55:31;;;;;;;0.38;0.30;;;21.40;65.30;;;;;;6392704;27;20035;-49
2023/08/15 06:58:33;;;;;;;0.45;0.30;;;22.30;65.70;;;;;;6392729;27;20043;-45
2023/08/15 07:01:34;;;;;;;0.25;0.20;;;21.40;64.40;;;;;;6393742;27;20437;-48
2023/08/15 07:04:40;;;;;;;0.40;0.30;;;21.50;65.10;;;;;;6391409;27;20478;-49
2023/08/15 07:07:41;;;;;;;0.30;0.30;;;22.50;64.90;;;;;;6370713;27;20038;-47
2023/08/15 07:10:44;;;;;;;0.20;0.20;;;22.60;65.20;;;;;;6391148;27;20039;-49
2023/08/15 07:13:46;;;;;;;0.40;0.25;;;23.80;65.10;;;;;;6372723;27;20046;-48
2023/08/15 07:16:47;;;;;;;0.20;0.20;;;23.40;65.20;;;;;;6390726;27;20038;-48
2023/08/15 07:19:50;;;;;;;0.22;0.13;;;23.30;65.20;;;;;;6372684;27;20045;-46
2023/08/15 07:22:53;;;;;;;0.43;0.30;;;23.30;65.40;;;;;;6391984;27;20049;-47
2023/08/15 07:25:58;;;;;;;0.30;0.20;;;23.40;65.20;;;;;;6389272;27;20043;-47
2023/08/15 07:29:00;;;;;;;0.40;0.20;;;22.80;65.10;;;;;;6388897;27;20038;-47
2023/08/15 07:32:02;;;;;;;0.52;0.20;;;22.80;64.30;;;;;;6388935;27;20102;-46
2023/08/15 07:35:05;;;;;;;0.43;0.20;;;23.00;65.40;;;;;;6389872;27;20038;-48
2023/08/15 07:38:07;;;;;;;0.22;0.20;;;23.30;64.70;;;;;;6371561;27;20035;-47
2023/08/15 07:41:09;;;;;;;0.20;0.20;;;23.40;64.80;;;;;;6389275;27;20064;-48
2023/08/15 07:44:11;;;;;;;0.47;0.22;;;23.30;64.90;;;;;;6389814;27;20398;-49
2023/08/15 07:47:13;;;;;;;0.30;0.20;;;23.10;64.60;;;;;;6389114;27;20027;-48
2023/08/15 07:50:16;;;;;;;0.40;0.40;;;22.40;64.20;;;;;;6387957;27;20065;-46
2023/08/15 07:53:18;;;;;;;0.30;0.20;;;23.10;64.40;;;;;;6368074;27;20102;-50
2023/08/15 07:56:19;;;;;;;0.13;0.10;;;23.50;64.90;;;;;;6380182;27;20046;-48
2023/08/15 07:59:22;;;;;;;0.30;0.28;;;23.50;65.30;;;;;;6382026;27;20035;-47
2023/08/15 08:02:24;;;;;;;0.50;0.20;;;23.60;64.40;;;;;;6380585;27;20049;-49
2023/08/15 08:05:26;;;;;;;0.30;0.30;;;23.50;65.20;;;;;;6380812;27;20034;-47
2023/08/15 08:08:30;;;;;;;0.22;0.20;;;23.10;64.60;;;;;;6383574;27;20040;-50
2023/08/15 08:11:32;;;;;;;0.30;0.20;;;23.00;64.50;;;;;;6379877;27;20533;-47
2023/08/15 08:14:35;;;;;;;0.85;0.20;;;23.00;64.70;;;;;;6380210;27;20038;-48
2023/08/15 08:17:45;;;;;;;;;;;22.80;64.60;;;;;;6385595;27;20034;-46
2023/08/15 08:20:50;;;;;;;0.20;0.20;;;23.50;65.40;;;;;;6389074;27;19963;-49
2023/08/15 08:23:52;;;;;;;0.40;0.40;;;22.30;61.10;;;;;;6384464;27;20035;-46
2023/08/15 08:26:53;;;;;;;0.40;0.20;;;23.10;64.30;;;;;;6389489;27;20042;-46
2023/08/15 08:29:55;;;;;;;0.40;0.20;;;22.00;64.50;;;;;;6390583;27;20035;-48
2023/08/15 08:32:57;;;;;;;0.43;0.22;;;22.80;65.10;;;;;;6388971;27;20046;-46
2023/08/15 08:35:58;;;;;;;1.10;0.20;;;22.40;64.70;;;;;;6389108;27;20140;-50
2023/08/15 08:39:00;;;;;;;0.50;0.20;;;22.80;64.50;;;;;;6385607;27;20038;-47
2023/08/15 08:42:03;;;;;;;0.63;0.30;;;23.30;64.60;;;;;;6384518;27;20042;-46
2023/08/15 08:45:08;;;;;;;0.63;0.20;;;24.30;64.70;;;;;;6391992;27;20030;-52
2023/08/15 08:48:09;;;;;;;0.20;0.20;;;22.10;63.10;;;;;;6393117;27;20031;-46
2023/08/15 08:51:12;;;;;;;0.40;0.30;;;23.00;64.70;;;;;;6389668;27;20035;-47
2023/08/15 08:54:13;;;;;;;0.38;0.20;;;22.60;64.00;;;;;;6367747;27;20035;-48
2023/08/15 08:57:19;;;;;;;0.57;0.30;;;23.00;64.50;;;;;;6391999;27;20134;-47
2023/08/15 09:00:28;;;;;;;1.00;0.35;;;22.70;64.10;;;;;;6370413;27;20047;-49
2023/08/15 09:03:30;;;;;;;0.30;0.30;;;23.50;63.80;;;;;;6370666;27;20038;-52
2023/08/15 09:06:32;;;;;;;0.20;0.20;;;23.60;64.10;;;;;;6387391;27;20066;-47
2023/08/15 09:09:34;;;;;;;0.30;0.20;;;23.50;63.90;;;;;;6386476;27;20031;-46
2023/08/15 09:12:37;;;;;;;0.35;0.30;;;23.00;63.50;;;;;;6383621;27;20083;-49
2023/08/15 09:15:47;;;;;;;0.20;0.20;;;23.70;64.80;;;;;;6365010;27;20053;-47
2023/08/15 09:18:49;;;;;;;1.27;0.20;;;23.70;64.10;;;;;;6385917;27;20038;-49
2023/08/15 09:21:50;;;;;;;0.35;0.20;;;23.20;63.40;;;;;;6388063;27;20465;-49
2023/08/15 09:24:55;;;;;;;0.45;0.20;;;23.70;64.00;;;;;;6387246;27;20063;-49
2023/08/15 09:27:56;;;;;;;0.45;0.20;;;23.20;63.70;;;;;;6391650;27;20059;-48
2023/08/15 09:31:04;;;;;;;0.30;0.30;;;23.10;63.90;;;;;;6391645;27;20058;-48
2023/08/15 09:34:09;;;;;;;0.98;0.25;;;23.50;63.50;;;;;;6390967;27;20232;-47
2023/08/15 09:37:12;;;;;;;0.50;0.20;;;23.20;63.60;;;;;;6372367;27;20039;-47
2023/08/15 09:40:16;;;;;;;0.20;0.20;;;23.70;63.70;;;;;;6389806;27;20541;-48
2023/08/15 09:43:19;;;;;;;0.70;0.20;;;23.60;63.70;;;;;;6372661;27;20505;-48
2023/08/15 09:46:24;;;;;;;0.40;0.30;;;23.70;63.50;;;;;;6391110;27;20039;-48
2023/08/15 09:49:27;;;;;;;0.25;0.25;;;23.10;63.40;;;;;;6391149;27;20039;-50
2023/08/15 09:52:30;;;;;;;0.17;0.17;;;23.70;63.20;;;;;;6389851;27;20043;-49
2023/08/15 09:55:34;;;;;;;0.43;0.30;;;23.60;63.20;;;;;;6391465;27;20088;-46
2023/08/15 09:58:38;;;;;;;0.47;0.20;;;23.70;63.30;;;;;;6388025;27;20035;-49
2023/08/15 10:01:45;;;;;;;0.50;0.30;;;23.40;63.00;;;;;;6390490;27;20115;-48
2023/08/15 10:04:52;;;;;;;0.40;0.20;;;23.70;61.20;;;;;;6388730;27;20042;-47
2023/08/15 10:07:54;;;;;;;0.80;0.65;;;;;;;;;;6387665;27;20039;-47
2023/08/15 10:10:59;;;;;;;0.13;0.10;;;23.00;60.20;;;;;;6389597;27;20039;-49
2023/08/15 10:14:02;;;;;;;0.20;0.20;;;23.20;62.80;;;;;;6408694;27;20038;-47
2023/08/15 10:17:05;;;;;;;0.20;0.20;;;23.80;63.00;;;;;;6418108;27;20060;-48
2023/08/15 10:20:10;;;;;;;0.20;0.20;;;23.20;62.80;;;;;;6416206;27;20039;-47
2023/08/15 10:23:12;;;;;;;0.30;0.30;;;23.80;63.10;;;;;;6417695;27;20030;-45
2023/08/15 10:26:13;;;;;;;0.57;0.20;;;24.90;63.70;;;;;;6416627;27;20026;-45
2023/08/15 10:29:15;;;;;;;0.20;0.10;;;23.80;63.00;;;;;;6417071;27;20042;-45
2023/08/15 10:32:24;;;;;;;0.10;0.10;;;23.90;63.10;;;;;;6416799;27;20062;-45
2023/08/15 10:35:27;;;;;;;0.22;0.20;;;23.80;62.70;;;;;;6416911;27;20046;-45
2023/08/15 10:38:40;;;;;;;0.20;0.20;;;23.90;62.80;;;;;;6414870;27;20105;-47
2023/08/15 10:41:43;;;;;;;0.57;0.30;;;24.00;62.70;;;;;;6414700;27;20584;-45
2023/08/15 10:44:58;;;;;;;0.40;0.10;;;23.90;62.80;;;;;;6416288;27;20043;-47
2023/08/15 10:48:00;;;;;;;0.10;0.10;;;24.00;62.70;;;;;;6414897;27;20042;-46
2023/08/15 10:51:05;;;;;;;0.10;0.10;;;23.90;62.90;;;;;;6417091;27;20087;-44
2023/08/15 10:54:08;;;;;;;0.68;0.20;;;23.80;62.50;;;;;;6416718;27;20044;-46
2023/08/15 10:57:10;;;;;;;0.32;0.20;;;24.00;62.40;;;;;;6416744;27;20037;-46
2023/08/15 11:00:17;;;;;;;0.30;0.20;;;23.80;62.30;;;;;;6414236;27;20561;-45
2023/08/15 11:03:20;;;;;;;0.20;0.20;;;23.90;62.20;;;;;;6416492;27;20094;-45
2023/08/15 11:06:25;;;;;;;0.20;0.17;;;23.90;61.90;;;;;;6415381;27;20091;-46
2023/08/15 11:09:28;;;;;;;0.10;0.10;;;24.20;59.90;;;;;;6398095;27;20544;-46
2023/08/15 11:12:30;;;;;;;0.20;0.20;;;24.00;61.90;;;;;;6416498;27;20039;-48
2023/08/15 11:15:32;;;;;;;0.25;0.17;;;24.10;62.30;;;;;;6414380;27;20039;-47
2023/08/15 11:18:36;;;;;;;0.40;0.30;;;24.00;61.60;;;;;;6416001;27;20023;-46
2023/08/15 11:21:39;;;;;;;0.10;0.10;;;24.10;61.90;;;;;;6416204;27;20041;-45
2023/08/15 11:24:40;;;;;;;0.75;0.30;;;24.10;60.20;;;;;;6415122;27;20045;-45
2023/08/15 11:27:42;;;;;;;0.30;0.20;;;24.10;61.80;;;;;;6415964;27;20027;-45
2023/08/15 11:30:44;;;;;;;0.38;0.20;;;24.20;61.50;;;;;;6416268;27;20031;-45
2023/08/15 11:33:49;;;;;;;0.30;0.20;;;24.10;61.70;;;;;;6416811;27;20031;-45
2023/08/15 11:36:51;;;;;;;0.20;0.20;;;24.20;61.10;;;;;;6396014;27;20038;-47
2023/08/15 11:39:54;;;;;;;0.20;0.20;;;24.00;61.40;;;;;;6416460;27;20034;-45
2023/08/15 11:42:56;;;;;;;0.15;0.10;;;24.20;61.10;;;;;;6414589;27;20073;-45
2023/08/15 11:46:03;;;;;;;0.20;0.20;;;24.00;61.20;;;;;;6412239;27;20029;-46
2023/08/15 11:51:05;;;;;;;1.38;0.20;;;24.00;57.00;;;;;;6485040;27;20325;-47
2023/08/15 11:54:07;;;;;;;0.35;0.30;;;24.00;60.40;;;;;;6462751;27;20062;-47
2023/08/15 11:57:11;;;;;;;0.50;0.28;;;24.10;60.60;;;;;;6457942;27;20034;-47
2023/08/15 12:00:15;;;;;;;0.43;0.20;;;24.30;60.00;;;;;;6435885;27;20094;-46
2023/08/15 12:03:16;;;;;;;0.15;0.15;;;24.30;60.10;;;;;;6435387;27;20057;-47
2023/08/15 12:06:19;;;;;;;0.20;0.10;;;24.30;59.90;;;;;;6436190;27;20034;-48
2023/08/15 12:09:28;;;;;;;0.10;0.10;;;24.30;59.90;;;;;;6435631;27;20050;-48
2023/08/15 12:12:38;;;;;;;0.32;0.20;;;24.20;59.80;;;;;;6420019;27;20034;-46
2023/08/15 12:15:39;;;;;;;0.10;0.10;;;24.20;59.60;;;;;;6396732;27;20046;-50
2023/08/15 12:18:41;;;;;;;0.10;0.10;;;24.30;59.70;;;;;;6436749;27;20025;-48
2023/08/15 12:21:43;;;;;;;0.20;0.15;;;24.20;59.90;;;;;;6435239;27;20023;-47
2023/08/15 12:24:44;;;;;;;0.30;0.20;;;24.30;59.70;;;;;;6435778;27;20038;-46
2023/08/15 12:27:46;;;;;;;0.28;0.28;;;24.20;59.60;;;;;;6436762;27;20019;-49
2023/08/15 12:30:48;;;;;;;0.25;0.20;;;24.30;59.80;;;;;;6435504;27;20038;-46
2023/08/15 12:33:49;;;;;;;0.25;0.22;;;24.40;59.40;;;;;;6435529;27;20045;-48
2023/08/15 12:36:55;;;;;;;0.20;0.20;;;24.30;59.60;;;;;;6434886;27;20038;-49
2023/08/15 12:39:57;;;;;;;0.10;0.10;;;24.40;59.50;;;;;;6435021;27;20041;-48
2023/08/15 12:42:58;;;;;;;0.20;0.20;;;24.30;59.50;;;;;;6434567;27;20031;-48
2023/08/15 12:46:00;;;;;;;0.20;0.20;;;24.30;86.80;;;;;;6435331;27;20030;-46
2023/08/15 12:49:03;;;;;;;0.32;0.22;;;24.40;59.00;;;;;;6435213;27;20030;-48
2023/08/15 12:52:06;;;;;;;0.20;0.20;;;24.40;58.90;;;;;;6434889;27;20038;-46
2023/08/15 12:55:08;;;;;;;0.13;0.13;;;24.60;58.70;;;;;;6434169;27;20047;-46
2023/08/15 12:58:09;;;;;;;0.47;0.20;;;24.40;58.80;;;;;;6434200;27;20027;-48
2023/08/15 13:01:11;;;;;;;0.17;0.10;;;24.40;58.70;;;;;;6423835;27;20109;-47
2023/08/15 13:04:13;;;;;;;0.55;0.20;;;24.40;58.70;;;;;;6417177;27;20023;-49
2023/08/15 13:07:15;;;;;;;0.28;0.20;;;24.40;58.60;;;;;;6415644;27;20077;-50
2023/08/15 13:10:17;;;;;;;0.40;0.20;;;24.50;58.70;;;;;;6415559;27;20023;-47
2023/08/15 13:13:18;;;;;;;0.20;0.20;;;24.30;57.90;;;;;;6416695;27;20050;-49
2023/08/15 13:16:22;;;;;;;0.28;0.25;;;24.50;58.60;;;;;;6416207;27;20562;-45
2023/08/15 13:19:26;;;;;;;0.45;0.20;;;24.60;59.00;;;;;;6415985;27;20116;-46
2023/08/15 13:22:28;;;;;;;0.28;0.20;;;24.40;58.50;;;;;;6415531;27;20030;-47
2023/08/15 13:25:29;;;;;;;0.35;0.20;;;24.30;58.30;;;;;;6416105;27;20321;-46
2023/08/15 13:28:33;;;;;;;0.30;0.30;;;24.70;58.80;;;;;;6414812;27;20049;-48
2023/08/15 13:31:35;;;;;;;0.20;0.20;;;24.50;56.90;;;;;;6415478;27;20035;-49
2023/08/15 13:34:36;;;;;;;0.40;0.20;;;24.60;58.50;;;;;;6414452;27;20049;-52
2023/08/15 13:37:38;;;;;;;0.30;0.20;;;24.70;58.50;;;;;;6415124;27;20035;-46
2023/08/15 13:40:43;;;;;;;0.30;0.20;;;24.70;58.40;;;;;;6415233;27;20143;-48
2023/08/15 13:43:48;;;;;;;0.50;0.17;;;24.70;58.20;;;;;;6362818;27;20079;-48
2023/08/15 13:46:50;;;;;;;0.13;0.10;;;24.60;58.30;;;;;;6415013;27;20086;-49
2023/08/15 13:49:51;;;;;;;0.30;0.20;;;24.60;58.10;;;;;;6413650;27;20049;-49
2023/08/15 13:52:53;;;;;;;0.30;0.20;;;24.80;58.30;;;;;;6414497;27;20037;-46
2023/08/15 13:55:55;;;;;;;0.25;0.20;;;24.70;58.00;;;;;;6416211;27;20042;-45
2023/08/15 13:58:59;;;;;;;0.30;0.20;;;24.70;58.00;;;;;;6411198;27;20057;-45
2023/08/15 14:02:01;;;;;;;0.10;0.10;;;24.80;56.00;;;;;;6413807;27;20043;-47
2023/08/15 14:05:03;;;;;;;0.22;0.10;;;24.50;57.90;;;;;;6411807;27;20034;-46
2023/08/15 14:08:06;;;;;;;0.13;0.10;;;24.30;57.30;;;;;;6412888;27;20064;-48
2023/08/15 14:11:08;;;;;;;0.10;0.10;;;24.60;57.90;;;;;;6394519;27;20073;-48
2023/08/15 14:14:09;;;;;;;0.17;0.13;;;24.70;57.80;;;;;;6412043;27;20035;-47
2023/08/15 14:17:11;;;;;;;0.10;0.10;;;24.50;57.80;;;;;;6395571;27;20039;-48
2023/08/15 14:20:12;;;;;;;0.10;0.10;;;24.80;57.50;;;;;;6412110;27;20045;-47
2023/08/15 14:23:14;;;;;;;0.28;0.20;;;24.70;57.70;;;;;;6411606;27;20035;-46
2023/08/15 14:26:16;;;;;;;0.20;0.20;;;24.80;57.40;;;;;;6411074;27;20046;-46
2023/08/15 14:29:17;;;;;;;0.32;0.20;;;24.80;57.90;;;;;;6413866;27;20038;-47
2023/08/15 14:32:19;;;;;;;0.10;0.10;;;24.80;57.40;;;;;;6412727;27;20050;-49
2023/08/15 14:35:27;;;;;;;0.52;0.20;;;24.90;57.60;;;;;;6411877;27;20038;-46
2023/08/15 14:38:31;;;;;;;0.20;0.20;;;24.80;56.90;;;;;;6413073;27;20062;-45
2023/08/15 14:41:33;;;;;;;0.25;0.13;;;24.70;57.30;;;;;;6412711;27;20031;-47
2023/08/15 14:44:34;;;;;;;0.28;0.20;;;24.90;57.30;;;;;;6413000;27;20035;-49
2023/08/15 14:47:38;;;;;;;0.20;0.20;;;24.90;57.30;;;;;;6412699;27;20022;-46
2023/08/15 14:50:43;;;;;;;0.10;0.10;;;24.80;56.90;;;;;;6393652;27;20072;-47
2023/08/15 14:53:46;;;;;;;0.20;0.20;;;25.00;55.30;;;;;;6412389;27;20086;-47
2023/08/15 14:56:47;;;;;;;0.90;0.20;;;25.00;57.20;;;;;;6412510;27;20033;-48
2023/08/15 14:59:51;;;;;;;0.10;0.10;;;25.20;57.40;;;;;;6413816;27;20039;-46
2023/08/15 15:02:53;;;;;;;0.10;0.10;;;24.90;56.70;;;;;;6395660;27;20031;-47
2023/08/15 15:05:55;;;;;;;0.20;0.20;;;25.10;57.10;;;;;;6413509;27;20023;-47
2023/08/15 15:08:57;;;;;;;1.05;0.30;;;25.10;56.90;;;;;;6410794;27;20039;-49
2023/08/15 15:11:58;;;;;;;0.38;0.20;;;25.00;56.80;;;;;;6413978;27;20041;-47
2023/08/15 15:15:00;;;;;;;0.20;0.20;;;25.00;56.60;;;;;;6412912;27;20035;-45
2023/08/15 15:18:01;;;;;;;0.20;0.20;;;24.90;56.80;;;;;;6413665;27;20039;-45
2023/08/15 15:21:04;;;;;;;0.50;0.22;;;25.00;56.80;;;;;;6412727;27;20097;-48
2023/08/15 15:24:07;;;;;;;0.20;0.20;;;24.90;57.10;;;;;;6413949;27;20033;-46
2023/08/15 15:27:09;;;;;;;0.43;0.30;;;24.90;57.10;;;;;;6414321;27;20030;-45
2023/08/15 15:30:10;;;;;;;0.43;0.20;;;25.00;57.20;;;;;;6411110;27;20080;-47
2023/08/15 15:33:15;;;;;;;0.20;0.20;;;25.10;57.10;;;;;;6410783;27;20058;-48
2023/08/15 15:36:16;;;;;;;0.10;0.10;;;24.90;57.40;;;;;;6411906;27;20050;-46
2023/08/15 15:39:18;;;;;;;0.28;0.28;;;24.80;57.30;;;;;;6411158;27;20050;-47
2023/08/15 15:42:22;;;;;;;0.63;0.30;;;24.90;57.40;;;;;;6411592;27;20034;-45
2023/08/15 15:45:24;;;;;;;0.20;0.20;;;24.80;57.30;;;;;;6411364;27;20035;-46
2023/08/15 15:48:26;;;;;;;0.40;0.17;;;25.00;57.60;;;;;;6410295;27;20043;-46
2023/08/15 15:51:28;;;;;;;0.38;0.30;;;24.90;57.80;;;;;;6410888;27;20098;-47
2023/08/15 15:54:30;;;;;;;0.30;0.30;;;24.90;57.70;;;;;;6411414;27;20043;-46